createdAt,value
2019-04-20T00:00:09.142Z,1032.2639
2019-04-20T00:00:19.078Z,1032.3
2019-04-20T00:00:37.019Z,1032.3035
2019-04-20T00:00:48.707Z,1032.2774
2019-04-20T00:00:56.810Z,1032.2774
2019-04-20T00:01:11.452Z,1032.2939
2019-04-20T00:01:26.684Z,1032.2972
2019-04-20T00:01:35.693Z,1032.2658
2019-04-20T00:01:47.371Z,1032.2641
2019-04-20T00:02:07.113Z,1032.236
2019-04-20T00:02:15.638Z,1032.2674
2019-04-20T00:02:25.411Z,1032.2609
2019-04-20T00:02:37.696Z,1032.2985
2019-04-20T00:02:53.240Z,1032.2658
2019-04-20T00:03:03.070Z,1032.2807
2019-04-20T00:03:15.832Z,1032.241
2019-04-20T00:03:30.778Z,1032.2559
2019-04-20T00:03:43.216Z,1032.2969
2019-04-20T00:03:53.706Z,1032.284
2019-04-20T00:04:05.431Z,1032.241
2019-04-20T00:04:22.477Z,1032.3054
2019-04-20T00:04:33.644Z,1032.2952
2019-04-20T00:04:43.106Z,1032.2774
2019-04-20T00:04:54.990Z,1032.2573
2019-04-20T00:05:07.478Z,1032.2674
2019-04-20T00:05:19.142Z,1032.2542
2019-04-20T00:05:30.977Z,1032.2629
2019-04-20T00:05:43.390Z,1032.2344
2019-04-20T00:05:55.169Z,1032.2542
2019-04-20T00:06:06.928Z,1032.2312
2019-04-20T00:06:19.471Z,1032.2622
2019-04-20T00:06:38.096Z,1032.243
2019-04-20T00:06:48.305Z,1032.2579
2019-04-20T00:06:57.885Z,1032.2464
2019-04-20T00:07:10.152Z,1032.2515
2019-04-20T00:07:24.497Z,1032.243
2019-04-20T00:07:37.227Z,1032.2515
2019-04-20T00:07:48.004Z,1032.2301
2019-04-20T00:08:01.087Z,1032.2581
2019-04-20T00:08:16.601Z,1032.2631
2019-04-20T00:08:28.294Z,1032.227
2019-04-20T00:08:40.783Z,1032.2598
2019-04-20T00:08:58.678Z,1032.2502
2019-04-20T00:09:10.071Z,1032.2188
2019-04-20T00:09:20.987Z,1032.1925
2019-04-20T00:09:33.132Z,1032.2353
2019-04-20T00:09:50.090Z,1032.2515
2019-04-20T00:10:01.042Z,1032.2468
2019-04-20T00:10:13.405Z,1032.2142
2019-04-20T00:10:23.024Z,1032.2502
2019-04-20T00:10:42.409Z,1032.2537
2019-04-20T00:10:54.730Z,1032.269
2019-04-20T00:11:05.713Z,1032.2045
2019-04-20T00:11:18.401Z,1032.2362
2019-04-20T00:11:28.079Z,1032.241
2019-04-20T00:11:49.213Z,1032.251
2019-04-20T00:12:01.431Z,1032.2427
2019-04-20T00:12:10.662Z,1032.2493
2019-04-20T00:12:22.773Z,1032.2609
2019-04-20T00:12:36.409Z,1032.2333
2019-04-20T00:12:53.037Z,1032.25
2019-04-20T00:13:07.661Z,1032.2532
2019-04-20T00:13:19.146Z,1032.2598
2019-04-20T00:13:30.733Z,1032.2319
2019-04-20T00:13:42.443Z,1032.242
2019-04-20T00:13:52.477Z,1032.2073
2019-04-20T00:14:05.346Z,1032.2056
2019-04-20T00:14:15.731Z,1032.2423
2019-04-20T00:14:27.599Z,1032.2354
2019-04-20T00:14:38.794Z,1032.1997
2019-04-20T00:14:49.987Z,1032.203
2019-04-20T00:15:01.231Z,1032.1914
2019-04-20T00:15:13.172Z,1032.2181
2019-04-20T00:15:26.020Z,1032.2069
2019-04-20T00:15:38.909Z,1032.2497
2019-04-20T00:15:51.305Z,1032.2319
2019-04-20T00:16:02.352Z,1032.2137
2019-04-20T00:16:14.734Z,1032.2302
2019-04-20T00:16:27.214Z,1032.2238
2019-04-20T00:16:39.881Z,1032.2124
2019-04-20T00:16:52.743Z,1032.201
2019-04-20T00:17:05.134Z,1032.1948
2019-04-20T00:17:16.305Z,1032.2188
2019-04-20T00:17:28.698Z,1032.1977
2019-04-20T00:17:45.818Z,1032.2373
2019-04-20T00:17:57.070Z,1032.2242
2019-04-20T00:18:07.101Z,1032.1865
2019-04-20T00:18:19.142Z,1032.2258
2019-04-20T00:18:34.278Z,1032.1799
2019-04-20T00:18:48.075Z,1032.2139
2019-04-20T00:18:58.929Z,1032.2343
2019-04-20T00:19:09.393Z,1032.2076
2019-04-20T00:19:25.189Z,1032.1832
2019-04-20T00:19:40.397Z,1032.2225
2019-04-20T00:19:51.029Z,1032.2014
2019-04-20T00:20:04.596Z,1032.16
2019-04-20T00:20:18.910Z,1032.196
2019-04-20T00:20:29.564Z,1032.1884
2019-04-20T00:20:38.991Z,1032.2325
2019-04-20T00:20:57.404Z,1032.2177
2019-04-20T00:21:07.746Z,1032.2227
2019-04-20T00:21:16.288Z,1032.2373
2019-04-20T00:21:29.063Z,1032.2062
2019-04-20T00:21:46.867Z,1032.2113
2019-04-20T00:21:59.566Z,1032.2211
2019-04-20T00:22:08.618Z,1032.2524
2019-04-20T00:22:20.041Z,1032.2379
2019-04-20T00:22:39.241Z,1032.2264
2019-04-20T00:22:47.596Z,1032.2514
2019-04-20T00:22:58.142Z,1032.2335
2019-04-20T00:23:12.250Z,1032.2758
2019-04-20T00:23:29.186Z,1032.2844
2019-04-20T00:23:39.834Z,1032.2767
2019-04-20T00:23:49.748Z,1032.283
2019-04-20T00:24:08.806Z,1032.2753
2019-04-20T00:24:19.199Z,1032.2591
2019-04-20T00:24:30.934Z,1032.2789
2019-04-20T00:24:41.018Z,1032.3089
2019-04-20T00:24:56.675Z,1032.2445
2019-04-20T00:25:10.367Z,1032.2795
2019-04-20T00:25:20.832Z,1032.2451
2019-04-20T00:25:41.564Z,1032.2486
2019-04-20T00:25:54.230Z,1032.247
2019-04-20T00:26:06.660Z,1032.239
2019-04-20T00:26:16.903Z,1032.2707
2019-04-20T00:26:33.729Z,1032.2707
2019-04-20T00:27:04.315Z,1032.2696
2019-04-20T00:27:19.139Z,1032.2761
2019-04-20T00:27:36.877Z,1032.2467
2019-04-20T00:27:59.225Z,1032.285
2019-04-20T00:28:11.685Z,1032.2687
2019-04-20T00:28:19.353Z,1032.2524
2019-04-20T00:28:34.998Z,1032.3104
2019-04-20T00:28:44.092Z,1032.2612
2019-04-20T00:29:00.001Z,1032.291
2019-04-20T00:29:10.085Z,1032.2681
2019-04-20T00:29:24.729Z,1032.2962
2019-04-20T00:29:39.161Z,1032.2929
2019-04-20T00:29:49.242Z,1032.3024
2019-04-20T00:30:03.738Z,1032.3143
2019-04-20T00:30:24.671Z,1032.2572
2019-04-20T00:30:31.288Z,1032.2945
2019-04-20T00:30:46.532Z,1032.2434
2019-04-20T00:30:52.814Z,1032.2684
2019-04-20T00:31:09.013Z,1032.2756
2019-04-20T00:31:18.722Z,1032.2459
2019-04-20T00:31:29.492Z,1032.2918
2019-04-20T00:31:42.698Z,1032.2561
2019-04-20T00:31:52.145Z,1032.2596
2019-04-20T00:32:05.927Z,1032.2629
2019-04-20T00:32:17.145Z,1032.2695
2019-04-20T00:32:37.299Z,1032.3157
2019-04-20T00:32:46.309Z,1032.2697
2019-04-20T00:32:55.412Z,1032.2607
2019-04-20T00:33:07.242Z,1032.2855
2019-04-20T00:33:26.624Z,1032.2656
2019-04-20T00:33:36.754Z,1032.2376
2019-04-20T00:33:46.764Z,1032.2609
2019-04-20T00:33:59.021Z,1032.2514
2019-04-20T00:34:11.888Z,1032.2645
2019-04-20T00:34:22.771Z,1032.284
2019-04-20T00:34:31.929Z,1032.2546
2019-04-20T00:34:43.958Z,1032.2319
2019-04-20T00:34:54.004Z,1032.2432
2019-04-20T00:35:06.264Z,1032.2895
2019-04-20T00:35:17.306Z,1032.2434
2019-04-20T00:35:29.373Z,1032.2449
2019-04-20T00:35:42.106Z,1032.2615
2019-04-20T00:35:54.844Z,1032.2416
2019-04-20T00:36:07.198Z,1032.2238
2019-04-20T00:36:20.118Z,1032.1943
2019-04-20T00:36:32.766Z,1032.2373
2019-04-20T00:36:45.220Z,1032.2158
2019-04-20T00:36:58.113Z,1032.2111
2019-04-20T00:37:10.866Z,1032.2421
2019-04-20T00:37:23.323Z,1032.2059
2019-04-20T00:37:34.450Z,1032.237
2019-04-20T00:37:46.674Z,1032.2092
2019-04-20T00:37:59.100Z,1032.1909
2019-04-20T00:38:11.911Z,1032.1928
2019-04-20T00:38:26.810Z,1032.1501
2019-04-20T00:38:42.466Z,1032.2136
2019-04-20T00:38:53.337Z,1032.232
2019-04-20T00:39:06.282Z,1032.2124
2019-04-20T00:39:16.552Z,1032.1828
2019-04-20T00:39:27.907Z,1032.2241
2019-04-20T00:39:40.547Z,1032.1748
2019-04-20T00:39:52.999Z,1032.2241
2019-04-20T00:40:04.226Z,1032.2078
2019-04-20T00:40:17.085Z,1032.2225
2019-04-20T00:40:28.918Z,1032.1932
2019-04-20T00:40:41.266Z,1032.2342
2019-04-20T00:40:58.221Z,1032.2098
2019-04-20T00:41:08.860Z,1032.218
2019-04-20T00:41:19.320Z,1032.2064
2019-04-20T00:41:33.956Z,1032.2149
2019-04-20T00:41:48.841Z,1032.182
2019-04-20T00:42:02.261Z,1032.1937
2019-04-20T00:42:11.557Z,1032.202
2019-04-20T00:42:30.046Z,1032.1973
2019-04-20T00:42:42.145Z,1032.2272
2019-04-20T00:42:52.359Z,1032.1976
2019-04-20T00:43:01.762Z,1032.1816
2019-04-20T00:43:20.821Z,1032.2077
2019-04-20T00:43:31.040Z,1032.1424
2019-04-20T00:43:40.774Z,1032.2132
2019-04-20T00:43:53.255Z,1032.1708
2019-04-20T00:44:11.093Z,1032.2319
2019-04-20T00:44:23.129Z,1032.1942
2019-04-20T00:44:35.721Z,1032.2456
2019-04-20T00:44:45.547Z,1032.17
2019-04-20T00:45:05.530Z,1032.2442
2019-04-20T00:45:15.827Z,1032.1787
2019-04-20T00:45:27.146Z,1032.2319
2019-04-20T00:45:36.520Z,1032.2515
2019-04-20T00:45:53.541Z,1032.2453
2019-04-20T00:46:07.837Z,1032.216
2019-04-20T00:46:21.742Z,1032.2459
2019-04-20T00:46:32.807Z,1032.2244
2019-04-20T00:46:50.844Z,1032.2301
2019-04-20T00:47:04.200Z,1032.2102
2019-04-20T00:47:15.391Z,1032.2503
2019-04-20T00:47:30.293Z,1032.2338
2019-04-20T00:47:36.744Z,1032.2242
2019-04-20T00:47:50.756Z,1032.1796
2019-04-20T00:48:01.072Z,1032.223
2019-04-20T00:48:19.636Z,1032.2214
2019-04-20T00:48:31.438Z,1032.22
2019-04-20T00:48:44.999Z,1032.2249
2019-04-20T00:48:53.363Z,1032.1875
2019-04-20T00:49:10.730Z,1032.2598
2019-04-20T00:49:25.218Z,1032.2301
2019-04-20T00:49:38.645Z,1032.2316
2019-04-20T00:49:48.045Z,1032.1979
2019-04-20T00:50:00.785Z,1032.2358
2019-04-20T00:50:16.399Z,1032.1998
2019-04-20T00:50:28.055Z,1032.2193
2019-04-20T00:50:55.131Z,1032.2202
2019-04-20T00:51:02.823Z,1032.1873
2019-04-20T00:51:23.723Z,1032.2203
2019-04-20T00:51:34.763Z,1032.217
2019-04-20T00:51:50.554Z,1032.2104
2019-04-20T00:52:18.409Z,1032.206
2019-04-20T00:52:27.224Z,1032.2242
2019-04-20T00:52:32.515Z,1032.262
2019-04-20T00:52:49.880Z,1032.221
2019-04-20T00:53:03.008Z,1032.2324
2019-04-20T00:53:09.977Z,1032.2062
2019-04-20T00:53:22.550Z,1032.2065
2019-04-20T00:53:33.237Z,1032.2094
2019-04-20T00:53:44.753Z,1032.2034
2019-04-20T00:53:55.815Z,1032.2344
2019-04-20T00:54:07.247Z,1032.2741
2019-04-20T00:54:20.010Z,1032.2088
2019-04-20T00:54:32.537Z,1032.2103
2019-04-20T00:54:45.309Z,1032.1954
2019-04-20T00:54:58.074Z,1032.2039
2019-04-20T00:55:10.439Z,1032.2073
2019-04-20T00:55:23.117Z,1032.232
2019-04-20T00:55:36.005Z,1032.227
2019-04-20T00:55:48.539Z,1032.2403
2019-04-20T00:56:01.244Z,1032.2338
2019-04-20T00:56:14.042Z,1032.2055
2019-04-20T00:56:26.463Z,1032.2501
2019-04-20T00:56:39.171Z,1032.2241
2019-04-20T00:56:51.916Z,1032.2286
2019-04-20T00:57:13.119Z,1032.227
2019-04-20T00:57:24.315Z,1032.247
2019-04-20T00:57:36.724Z,1032.2255
2019-04-20T00:57:47.378Z,1032.2404
2019-04-20T00:57:58.332Z,1032.2338
2019-04-20T00:58:15.987Z,1032.2174
2019-04-20T00:58:27.717Z,1032.2075
2019-04-20T00:58:38.317Z,1032.2437
2019-04-20T00:58:55.678Z,1032.2191
2019-04-20T00:59:12.855Z,1032.2652
2019-04-20T00:59:23.048Z,1032.1962
2019-04-20T00:59:35.176Z,1032.2454
2019-04-20T00:59:58.882Z,1032.2174
2019-04-20T01:00:10.828Z,1032.2174
2019-04-20T01:00:21.097Z,1032.2305
2019-04-20T01:00:30.900Z,1032.255
2019-04-20T01:00:45.866Z,1032.2174
2019-04-20T01:01:12.623Z,1032.1875
2019-04-20T01:01:24.507Z,1032.2403
2019-04-20T01:01:42.106Z,1032.2006
2019-04-20T01:01:51.720Z,1032.1973
2019-04-20T01:02:03.315Z,1032.2088
2019-04-20T01:02:12.448Z,1032.1921
2019-04-20T01:02:25.558Z,1032.2204
2019-04-20T01:02:35.950Z,1032.2039
2019-04-20T01:02:47.215Z,1032.2055
2019-04-20T01:02:58.762Z,1032.1743
2019-04-20T01:03:13.232Z,1032.2153
2019-04-20T01:03:27.531Z,1032.2301
2019-04-20T01:03:42.192Z,1032.2631
2019-04-20T01:03:54.140Z,1032.1904
2019-04-20T01:04:14.672Z,1032.222
2019-04-20T01:04:23.666Z,1032.2008
2019-04-20T01:04:35.610Z,1032.191
2019-04-20T01:04:53.481Z,1032.2388
2019-04-20T01:05:03.832Z,1032.2259
2019-04-20T01:05:15.435Z,1032.2569
2019-04-20T01:05:22.575Z,1032.2557
2019-04-20T01:05:39.315Z,1032.1983
2019-04-20T01:05:51.914Z,1032.2315
2019-04-20T01:06:10.719Z,1032.215
2019-04-20T01:06:16.107Z,1032.212
2019-04-20T01:06:26.769Z,1032.2155
2019-04-20T01:06:40.473Z,1032.2191
2019-04-20T01:06:53.316Z,1032.2092
2019-04-20T01:07:04.492Z,1032.2404
2019-04-20T01:07:14.903Z,1032.2226
2019-04-20T01:07:26.220Z,1032.2226
2019-04-20T01:07:38.459Z,1032.2407
2019-04-20T01:07:48.470Z,1032.2364
2019-04-20T01:07:59.981Z,1032.233
2019-04-20T01:08:10.000Z,1032.2038
2019-04-20T01:08:21.574Z,1032.2183
2019-04-20T01:08:34.014Z,1032.2316
2019-04-20T01:08:46.343Z,1032.2288
2019-04-20T01:08:59.190Z,1032.1761
2019-04-20T01:09:11.908Z,1032.1892
2019-04-20T01:09:24.575Z,1032.2105
2019-04-20T01:09:35.643Z,1032.1826
2019-04-20T01:09:47.811Z,1032.2171
2019-04-20T01:10:00.421Z,1032.227
2019-04-20T01:10:13.140Z,1032.1878
2019-04-20T01:10:28.118Z,1032.2125
2019-04-20T01:10:44.714Z,1032.2108
2019-04-20T01:10:53.151Z,1032.2193
2019-04-20T01:11:04.225Z,1032.1912
2019-04-20T01:11:22.863Z,1032.2457
2019-04-20T01:11:33.652Z,1032.239
2019-04-20T01:11:44.830Z,1032.2327
2019-04-20T01:11:54.563Z,1032.2115
2019-04-20T01:12:12.412Z,1032.1934
2019-04-20T01:12:22.883Z,1032.2247
2019-04-20T01:12:34.706Z,1032.213
2019-04-20T01:12:45.805Z,1032.1838
2019-04-20T01:13:01.050Z,1032.1494
2019-04-20T01:13:13.666Z,1032.2036
2019-04-20T01:13:24.936Z,1032.2084
2019-04-20T01:13:41.985Z,1032.2563
2019-04-20T01:13:52.464Z,1032.2153
2019-04-20T01:14:05.772Z,1032.1843
2019-04-20T01:14:16.135Z,1032.2052
2019-04-20T01:14:34.741Z,1032.2331
2019-04-20T01:14:46.536Z,1032.2008
2019-04-20T01:14:57.220Z,1032.1843
2019-04-20T01:15:07.694Z,1032.2004
2019-04-20T01:15:27.917Z,1032.2087
2019-04-20T01:15:37.421Z,1032.2285
2019-04-20T01:15:51.406Z,1032.2039
2019-04-20T01:16:01.683Z,1032.2271
2019-04-20T01:16:21.265Z,1032.2136
2019-04-20T01:16:33.131Z,1032.2009
2019-04-20T01:16:43.866Z,1032.191
2019-04-20T01:16:54.352Z,1032.1583
2019-04-20T01:17:11.134Z,1032.201
2019-04-20T01:17:13.513Z,1032.1928
2019-04-20T01:17:25.176Z,1032.1717
2019-04-20T01:17:37.754Z,1032.1997
2019-04-20T01:17:49.805Z,1032.1684
2019-04-20T01:18:01.643Z,1032.206
2019-04-20T01:18:13.848Z,1032.1898
2019-04-20T01:18:25.301Z,1032.1882
2019-04-20T01:18:37.175Z,1032.1982
2019-04-20T01:18:49.018Z,1032.1901
2019-04-20T01:19:00.901Z,1032.1967
2019-04-20T01:19:15.775Z,1032.2244
2019-04-20T01:19:25.666Z,1032.2177
2019-04-20T01:19:37.498Z,1032.2032
2019-04-20T01:19:52.652Z,1032.2019
2019-04-20T01:20:02.136Z,1032.2364
2019-04-20T01:20:13.976Z,1032.2442
2019-04-20T01:20:26.315Z,1032.2199
2019-04-20T01:20:38.892Z,1032.1986
2019-04-20T01:20:51.436Z,1032.2186
2019-04-20T01:21:06.336Z,1032.2034
2019-04-20T01:21:19.796Z,1032.2119
2019-04-20T01:21:31.703Z,1032.2316
2019-04-20T01:21:42.925Z,1032.2121
2019-04-20T01:21:59.573Z,1032.2072
2019-04-20T01:22:13.462Z,1032.2402
2019-04-20T01:22:23.983Z,1032.2154
2019-04-20T01:22:40.056Z,1032.2025
2019-04-20T01:22:52.067Z,1032.2418
2019-04-20T01:23:04.492Z,1032.2192
2019-04-20T01:23:13.833Z,1032.2227
2019-04-20T01:23:26.790Z,1032.2343
2019-04-20T01:23:42.795Z,1032.2553
2019-04-20T01:23:54.909Z,1032.226
2019-04-20T01:24:05.248Z,1032.2521
2019-04-20T01:24:23.639Z,1032.244
2019-04-20T01:24:33.397Z,1032.2656
2019-04-20T01:24:45.304Z,1032.223
2019-04-20T01:24:54.940Z,1032.2243
2019-04-20T01:25:13.720Z,1032.2032
2019-04-20T01:25:26.894Z,1032.2062
2019-04-20T01:25:35.899Z,1032.2148
2019-04-20T01:25:46.957Z,1032.2084
2019-04-20T01:26:03.110Z,1032.2215
2019-04-20T01:26:14.307Z,1032.2001
2019-04-20T01:26:24.340Z,1032.182
2019-04-20T01:26:43.286Z,1032.2015
2019-04-20T01:26:52.777Z,1032.2296
2019-04-20T01:27:04.063Z,1032.2397
2019-04-20T01:27:27.066Z,1032.2148
2019-04-20T01:27:39.494Z,1032.1735
2019-04-20T01:28:01.738Z,1032.2214
2019-04-20T01:28:07.585Z,1032.2475
2019-04-20T01:28:24.115Z,1032.1898
2019-04-20T01:28:30.889Z,1032.2406
2019-04-20T01:28:46.210Z,1032.2093
2019-04-20T01:28:53.988Z,1032.2239
2019-04-20T01:29:08.452Z,1032.2025
2019-04-20T01:29:21.399Z,1032.2338
2019-04-20T01:29:32.219Z,1032.2222
2019-04-20T01:29:39.148Z,1032.2156
2019-04-20T01:29:52.741Z,1032.1976
2019-04-20T01:30:09.858Z,1032.2221
2019-04-20T01:30:22.394Z,1032.2105
2019-04-20T01:30:33.847Z,1032.2055
2019-04-20T01:30:44.368Z,1032.2006
2019-04-20T01:31:04.958Z,1032.2138
2019-04-20T01:31:14.574Z,1032.2301
2019-04-20T01:31:27.060Z,1032.1757
2019-04-20T01:31:38.077Z,1032.1723
2019-04-20T01:31:55.507Z,1032.1818
2019-04-20T01:32:07.625Z,1032.1586
2019-04-20T01:32:20.754Z,1032.1801
2019-04-20T01:32:31.825Z,1032.1623
2019-04-20T01:32:51.392Z,1032.1752
2019-04-20T01:32:59.541Z,1032.1915
2019-04-20T01:33:12.324Z,1032.1687
2019-04-20T01:33:24.981Z,1032.1636
2019-04-20T01:33:36.353Z,1032.1687
2019-04-20T01:33:49.079Z,1032.1849
2019-04-20T01:34:00.558Z,1032.1901
2019-04-20T01:34:16.134Z,1032.1524
2019-04-20T01:34:30.901Z,1032.1948
2019-04-20T01:34:41.271Z,1032.1934
2019-04-20T01:34:54.993Z,1032.2015
2019-04-20T01:35:04.388Z,1032.1931
2019-04-20T01:35:24.568Z,1032.1917
2019-04-20T01:35:35.415Z,1032.2177
2019-04-20T01:35:48.710Z,1032.2163
2019-04-20T01:36:01.761Z,1032.2177
2019-04-20T01:36:19.211Z,1032.1997
2019-04-20T01:36:30.612Z,1032.2194
2019-04-20T01:36:40.465Z,1032.1879
2019-04-20T01:36:55.487Z,1032.18
2019-04-20T01:37:04.210Z,1032.1931
2019-04-20T01:37:17.458Z,1032.1865
2019-04-20T01:37:29.122Z,1032.1896
2019-04-20T01:37:38.269Z,1032.1945
2019-04-20T01:38:00.048Z,1032.186
2019-04-20T01:38:11.154Z,1032.1978
2019-04-20T01:38:25.920Z,1032.2058
2019-04-20T01:38:34.061Z,1032.2191
2019-04-20T01:38:46.858Z,1032.2091
2019-04-20T01:38:58.582Z,1032.2209
2019-04-20T01:39:10.152Z,1032.2308
2019-04-20T01:39:20.451Z,1032.1782
2019-04-20T01:39:31.590Z,1032.2308
2019-04-20T01:39:43.080Z,1032.1879
2019-04-20T01:39:53.986Z,1032.201
2019-04-20T01:40:04.400Z,1032.1702
2019-04-20T01:40:14.957Z,1032.208
2019-04-20T01:40:27.454Z,1032.1964
2019-04-20T01:40:38.457Z,1032.1865
2019-04-20T01:40:50.593Z,1032.2062
2019-04-20T01:41:03.238Z,1032.1768
2019-04-20T01:41:16.066Z,1032.1949
2019-04-20T01:41:28.568Z,1032.1735
2019-04-20T01:41:39.519Z,1032.2144
2019-04-20T01:41:51.962Z,1032.2128
2019-04-20T01:42:04.448Z,1032.1752
2019-04-20T01:42:17.160Z,1032.1772
2019-04-20T01:42:30.003Z,1032.1772
2019-04-20T01:42:42.553Z,1032.1722
2019-04-20T01:42:55.302Z,1032.1918
2019-04-20T01:43:07.955Z,1032.154
2019-04-20T01:43:20.477Z,1032.1821
2019-04-20T01:43:33.039Z,1032.174
2019-04-20T01:43:45.770Z,1032.1856
2019-04-20T01:43:58.521Z,1032.1973
2019-04-20T01:44:11.170Z,1032.1446
2019-04-20T01:44:26.001Z,1032.2037
2019-04-20T01:44:39.086Z,1032.1811
2019-04-20T01:44:51.761Z,1032.2075
2019-04-20T01:45:02.726Z,1032.2272
2019-04-20T01:45:21.372Z,1032.2093
2019-04-20T01:45:31.085Z,1032.1928
2019-04-20T01:45:42.655Z,1032.2027
2019-04-20T01:46:01.040Z,1032.2176
2019-04-20T01:46:11.778Z,1032.1862
2019-04-20T01:46:21.843Z,1032.1767
2019-04-20T01:46:32.015Z,1032.2027
2019-04-20T01:46:46.496Z,1032.1634
2019-04-20T01:47:00.001Z,1032.1815
2019-04-20T01:47:11.189Z,1032.1785
2019-04-20T01:47:23.471Z,1032.1785
2019-04-20T01:47:39.626Z,1032.1782
2019-04-20T01:47:52.679Z,1032.1848
2019-04-20T01:48:01.845Z,1032.1717
2019-04-20T01:48:20.452Z,1032.1898
2019-04-20T01:48:30.431Z,1032.1651
2019-04-20T01:48:41.298Z,1032.1818
2019-04-20T01:48:52.610Z,1032.2163
2019-04-20T01:49:07.767Z,1032.154
2019-04-20T01:49:20.951Z,1032.1898
2019-04-20T01:49:32.296Z,1032.1832
2019-04-20T01:49:43.456Z,1032.1619
2019-04-20T01:50:01.454Z,1032.1555
2019-04-20T01:50:14.035Z,1032.2065
2019-04-20T01:50:25.998Z,1032.19
2019-04-20T01:50:37.086Z,1032.2067
2019-04-20T01:50:54.607Z,1032.2247
2019-04-20T01:51:07.059Z,1032.1772
2019-04-20T01:51:19.459Z,1032.1884
2019-04-20T01:51:28.506Z,1032.2015
2019-04-20T01:51:46.825Z,1032.1704
2019-04-20T01:51:57.293Z,1032.1391
2019-04-20T01:52:12.584Z,1032.1817
2019-04-20T01:52:22.874Z,1032.1853
2019-04-20T01:52:42.434Z,1032.1804
2019-04-20T01:52:50.278Z,1032.2331
2019-04-20T01:53:05.465Z,1032.1938
2019-04-20T01:53:16.302Z,1032.1789
2019-04-20T01:53:26.242Z,1032.2517
2019-04-20T01:53:50.182Z,1032.2944
2019-04-20T01:53:59.842Z,1032.2448
2019-04-20T01:54:11.571Z,1032.202
2019-04-20T01:54:25.742Z,1032.2169
2019-04-20T01:54:36.261Z,1032.1903
2019-04-20T01:54:56.191Z,1032.2399
2019-04-20T01:55:11.251Z,1032.2088
2019-04-20T01:55:15.570Z,1032.199
2019-04-20T01:55:32.760Z,1032.2481
2019-04-20T01:55:54.388Z,1032.2138
2019-04-20T01:55:54.388Z,1032.255
2019-04-20T01:56:07.019Z,1032.1926
2019-04-20T01:56:21.592Z,1032.2485
2019-04-20T01:56:31.045Z,1032.2846
2019-04-20T01:56:43.308Z,1032.1877
2019-04-20T01:56:54.374Z,1032.2237
2019-04-20T01:57:06.870Z,1032.2253
2019-04-20T01:57:18.828Z,1032.148
2019-04-20T01:57:29.755Z,1032.2171
2019-04-20T01:57:54.423Z,1032.1811
2019-04-20T01:58:04.717Z,1032.2023
2019-04-20T01:58:17.190Z,1032.2286
2019-04-20T01:58:34.609Z,1032.1712
2019-04-20T01:58:46.004Z,1032.1579
2019-04-20T01:58:58.039Z,1032.1811
2019-04-20T01:59:10.033Z,1032.1811
2019-04-20T01:59:19.396Z,1032.1976
2019-04-20T01:59:27.358Z,1032.1989
2019-04-20T01:59:39.528Z,1032.2023
2019-04-20T01:59:51.171Z,1032.1907
2019-04-20T02:00:03.526Z,1032.2038
2019-04-20T02:00:15.746Z,1032.2038
2019-04-20T02:00:28.284Z,1032.1923
2019-04-20T02:00:37.228Z,1032.1989
2019-04-20T02:00:50.127Z,1032.171
2019-04-20T02:01:00.774Z,1032.1723
2019-04-20T02:01:19.081Z,1032.1971
2019-04-20T02:01:29.943Z,1032.1527
2019-04-20T02:01:41.140Z,1032.169
2019-04-20T02:01:57.579Z,1032.1918
2019-04-20T02:02:08.457Z,1032.1573
2019-04-20T02:02:19.908Z,1032.1226
2019-04-20T02:02:31.151Z,1032.1979
2019-04-20T02:02:48.589Z,1032.1785
2019-04-20T02:02:59.186Z,1032.175
2019-04-20T02:03:09.900Z,1032.1684
2019-04-20T02:03:28.994Z,1032.1829
2019-04-20T02:03:38.225Z,1032.1862
2019-04-20T02:03:50.226Z,1032.1815
2019-04-20T02:04:01.690Z,1032.211
2019-04-20T02:04:20.038Z,1032.1683
2019-04-20T02:04:30.698Z,1032.1828
2019-04-20T02:04:40.896Z,1032.2125
2019-04-20T02:04:52.468Z,1032.2154
2019-04-20T02:05:08.645Z,1032.1662
2019-04-20T02:05:22.733Z,1032.1926
2019-04-20T02:05:32.671Z,1032.225
2019-04-20T02:05:44.448Z,1032.2397
2019-04-20T02:06:01.613Z,1032.1595
2019-04-20T02:06:11.405Z,1032.1608
2019-04-20T02:06:23.102Z,1032.174
2019-04-20T02:06:39.763Z,1032.2265
2019-04-20T02:06:50.278Z,1032.2282
2019-04-20T02:07:01.904Z,1032.2479
2019-04-20T02:07:11.948Z,1032.2164
2019-04-20T02:07:28.107Z,1032.2344
2019-04-20T02:07:42.031Z,1032.2131
2019-04-20T02:07:52.043Z,1032.2082
2019-04-20T02:08:01.945Z,1032.2263
2019-04-20T02:08:18.243Z,1032.2231
2019-04-20T02:08:29.126Z,1032.2164
2019-04-20T02:08:40.023Z,1032.2409
2019-04-20T02:08:57.247Z,1032.2346
2019-04-20T02:09:11.812Z,1032.2309
2019-04-20T02:09:20.984Z,1032.2624
2019-04-20T02:09:32.493Z,1032.1949
2019-04-20T02:09:49.402Z,1032.2015
2019-04-20T02:09:59.695Z,1032.2376
2019-04-20T02:10:11.437Z,1032.1971
2019-04-20T02:10:30.842Z,1032.2182
2019-04-20T02:10:41.534Z,1032.2116
2019-04-20T02:10:52.192Z,1032.2496
2019-04-20T02:11:02.607Z,1032.1837
2019-04-20T02:11:18.444Z,1032.2233
2019-04-20T02:11:30.869Z,1032.212
2019-04-20T02:11:42.674Z,1032.2316
2019-04-20T02:11:53.401Z,1032.2432
2019-04-20T02:12:10.470Z,1032.222
2019-04-20T02:12:22.233Z,1032.2088
2019-04-20T02:12:33.889Z,1032.2448
2019-04-20T02:12:43.886Z,1032.2025
2019-04-20T02:12:59.560Z,1032.2271
2019-04-20T02:13:09.338Z,1032.2125
2019-04-20T02:13:21.535Z,1032.2338
2019-04-20T02:13:39.033Z,1032.2271
2019-04-20T02:13:51.542Z,1032.2058
2019-04-20T02:14:02.157Z,1032.1992
2019-04-20T02:14:12.404Z,1032.2091
2019-04-20T02:14:32.090Z,1032.2108
2019-04-20T02:14:43.606Z,1032.1896
2019-04-20T02:14:53.983Z,1032.2503
2019-04-20T02:15:04.628Z,1032.2143
2019-04-20T02:15:22.877Z,1032.1748
2019-04-20T02:15:35.104Z,1032.2275
2019-04-20T02:15:46.707Z,1032.201
2019-04-20T02:15:57.720Z,1032.2126
2019-04-20T02:16:15.661Z,1032.247
2019-04-20T02:16:26.331Z,1032.2159
2019-04-20T02:16:37.141Z,1032.2211
2019-04-20T02:16:49.523Z,1032.2473
2019-04-20T02:17:07.310Z,1032.2293
2019-04-20T02:17:21.190Z,1032.1882
2019-04-20T02:17:31.788Z,1032.2177
2019-04-20T02:17:42.212Z,1032.2144
2019-04-20T02:18:03.014Z,1032.2128
2019-04-20T02:18:14.791Z,1032.2192
2019-04-20T02:18:26.838Z,1032.228
2019-04-20T02:18:35.773Z,1032.1884
2019-04-20T02:18:48.046Z,1032.2247
2019-04-20T02:19:08.915Z,1032.2032
2019-04-20T02:19:18.546Z,1032.2446
2019-04-20T02:19:30.013Z,1032.202
2019-04-20T02:19:46.123Z,1032.1923
2019-04-20T02:20:04.409Z,1032.2415
2019-04-20T02:20:15.435Z,1032.255
2019-04-20T02:20:27.372Z,1032.2503
2019-04-20T02:20:37.298Z,1032.2489
2019-04-20T02:20:54.096Z,1032.2521
2019-04-20T02:21:04.723Z,1032.2163
2019-04-20T02:21:19.490Z,1032.229
2019-04-20T02:21:27.282Z,1032.2884
2019-04-20T02:21:42.070Z,1032.2623
2019-04-20T02:21:55.242Z,1032.2836
2019-04-20T02:22:02.306Z,1032.2689
2019-04-20T02:22:15.546Z,1032.2724
2019-04-20T02:22:36.989Z,1032.2657
2019-04-20T02:22:46.137Z,1032.2432
2019-04-20T02:22:58.723Z,1032.2448
2019-04-20T02:23:10.403Z,1032.2858
2019-04-20T02:23:20.835Z,1032.2332
2019-04-20T02:23:30.400Z,1032.2137
2019-04-20T02:23:43.759Z,1032.2583
2019-04-20T02:23:53.000Z,1032.2517
2019-04-20T02:24:03.940Z,1032.2532
2019-04-20T02:24:13.063Z,1032.2811
2019-04-20T02:24:25.726Z,1032.2518
2019-04-20T02:24:37.598Z,1032.2535
2019-04-20T02:24:50.909Z,1032.2436
2019-04-20T02:25:03.493Z,1032.2518
2019-04-20T02:25:16.301Z,1032.2307
2019-04-20T02:25:29.024Z,1032.2469
2019-04-20T02:25:41.875Z,1032.2568
2019-04-20T02:25:54.223Z,1032.28
2019-04-20T02:26:05.598Z,1032.2489
2019-04-20T02:26:17.766Z,1032.2307